Time;durP1;ratioP1;P1;durP2;ratioP2;P2;SDS_P1;SDS_P2;PMS_P1;PMS_P2;Temp;Humidity;BMP_temperature;BMP_pressure;BME280_temperature;BME280_humidity;BME280_pressure;Samples;Min_cycle;Max_cycle;Signal;HPM_P1;HPM_P2
2023/07/29 08:36:06;;;;;;;;;1.00;1.00;;;;;23.72;52.50;100570.06;4976889;28;45413;-42
2023/07/29 08:38:31;;;;;;;;;1.00;1.00;;;;;23.74;52.46;100572.56;4977008;28;45974;-43
2023/07/29 08:41:06;;;;;;;;;0.00;0.00;;;;;23.74;53.05;100569.94;4977469;28;45444;-39
2023/07/29 08:43:32;;;;;;;;;0.00;0.00;;;;;23.75;52.85;100568.97;4977277;28;45362;-42
2023/07/29 08:45:59;;;;;;;;;2.50;0.00;;;;;23.73;52.40;100566.47;4976930;28;45444;-41
2023/07/29 08:48:41;;;;;;;;;1.00;1.00;;;;;23.75;52.68;100561.91;4977277;28;46202;-41
2023/07/29 08:51:09;;;;;;;;;0.00;0.00;;;;;23.76;52.71;100563.56;4976885;28;45684;-40
2023/07/29 08:53:35;;;;;;;;;0.00;0.00;;;;;23.76;52.41;100555.63;4977130;28;45406;-39
2023/07/29 08:56:02;;;;;;;;;0.50;0.50;;;;;23.77;52.94;100554.66;4977248;28;45580;-40
2023/07/29 08:58:28;;;;;;;;;0.75;0.75;;;;;23.80;52.47;100563.34;4977143;28;46045;-42
2023/07/29 09:00:54;;;;;;;;;2.00;1.00;;;;;23.80;52.87;100555.41;4976762;28;46356;-42
2023/07/29 09:03:20;;;;;;;;;1.00;1.00;;;;;23.77;52.57;100554.66;4977069;28;45341;-40
2023/07/29 09:05:46;;;;;;;;;0.50;0.50;;;;;23.78;52.82;100553.72;4977121;28;45243;-39
2023/07/29 09:08:11;;;;;;;;;2.75;1.00;;;;;23.81;52.40;100554.44;4976784;28;46254;-38
2023/07/29 09:10:37;;;;;;;;;1.00;1.00;;;;;23.81;52.43;100552.66;4976821;28;45557;-39
2023/07/29 09:13:04;;;;;;;;;1.00;1.00;;;;;23.82;52.54;100553.50;4959432;28;45761;-41
2023/07/29 09:15:32;;;;;;;;;1.00;1.00;;;;;23.81;52.32;100544.72;4977347;28;45484;-43
2023/07/29 09:17:58;;;;;;;;;0.25;0.25;;;;;23.81;53.05;100546.50;4976761;28;46493;-39
2023/07/29 09:20:28;;;;;;;;;1.00;1.00;;;;;23.81;52.87;100538.56;4976574;28;45468;-44
2023/07/29 09:22:57;;;;;;;;;1.25;1.00;;;;;23.82;52.80;100535.81;4976784;28;45411;-42
2023/07/29 09:25:24;;;;;;;;;1.75;0.75;;;;;23.84;52.71;100546.28;4976999;28;45343;-40
2023/07/29 09:27:50;;;;;;;;;1.00;1.00;;;;;23.84;52.26;100538.34;4976369;28;46370;-43
2023/07/29 09:30:16;;;;;;;;;0.75;0.75;;;;;23.82;52.88;100541.09;4976063;28;57768;-42
2023/07/29 09:32:41;;;;;;;;;1.00;0.50;;;;;23.84;52.80;100543.66;4976550;28;45347;-41
2023/07/29 09:35:11;;;;;;;;;1.00;1.00;;;;;23.85;52.48;100540.03;4975843;28;45375;-39
2023/07/29 09:37:38;;;;;;;;;1.00;1.00;;;;;23.85;52.55;100545.34;4959292;28;46352;-39
2023/07/29 09:40:04;;;;;;;;;1.00;1.00;;;;;23.85;52.17;100545.34;4976348;28;45565;-44
2023/07/29 09:42:30;;;;;;;;;1.00;1.00;;;;;23.86;52.68;100544.38;4976774;28;45196;-40
2023/07/29 09:44:55;;;;;;;;;2.50;1.00;;;;;23.84;52.46;100544.47;4958589;28;45604;-42
2023/07/29 09:47:21;;;;;;;;;1.00;1.00;;;;;23.87;52.48;100548.69;4975788;28;56940;-41
2023/07/29 09:49:47;;;;;;;;;1.00;1.00;;;;;23.84;52.25;100543.66;4976211;28;45441;-42
2023/07/29 09:52:15;;;;;;;;;1.00;1.00;;;;;23.86;52.63;100541.75;4975251;28;45525;-39
2023/07/29 09:54:43;;;;;;;;;1.00;1.00;;;;;23.86;52.57;100541.75;4959121;28;45312;-40
2023/07/29 09:57:08;;;;;;;;;1.00;1.00;;;;;23.87;52.82;100546.03;4977524;28;45409;-43
2023/07/29 09:59:34;;;;;;;;;1.25;1.25;;;;;23.87;52.64;100540.75;4979597;28;45439;-40
2023/07/29 10:02:00;;;;;;;;;1.00;0.75;;;;;23.88;52.49;100542.44;4979911;28;45345;-40
2023/07/29 10:04:26;;;;;;;;;1.75;1.50;;;;;23.88;52.27;100540.66;4979846;28;45460;-39
2023/07/29 10:06:52;;;;;;;;;1.00;1.00;;;;;23.88;52.28;100543.31;4979384;28;46930;-39
2023/07/29 10:09:20;;;;;;;;;2.00;2.00;;;;;23.89;52.65;100547.63;4979412;28;45432;-38
2023/07/29 10:11:45;;;;;;;;;1.75;1.75;;;;;23.88;52.31;100540.66;4979607;28;45480;-44
2023/07/29 10:14:11;;;;;;;;;1.00;1.00;;;;;23.89;52.02;100538.84;4979715;28;45600;-41
2023/07/29 10:16:37;;;;;;;;;1.00;1.00;;;;;23.89;51.89;100537.06;4979130;28;45830;-40
2023/07/29 10:19:04;;;;;;;;;1.75;1.75;;;;;23.89;52.30;100539.69;4979503;28;45709;-40
2023/07/29 10:21:30;;;;;;;;;1.00;1.00;;;;;23.89;52.53;100537.06;4979783;28;45350;-42
2023/07/29 10:24:01;;;;;;;;;3.00;2.00;;;;;23.91;52.38;100542.22;4979677;28;45465;-40
2023/07/29 10:26:29;;;;;;;;;1.00;1.00;;;;;23.92;51.95;100541.25;4979035;28;46742;-40
2023/07/29 10:29:00;;;;;;;;;3.00;1.00;;;;;23.90;51.84;100536.09;4979268;28;45264;-40
2023/07/29 10:31:29;;;;;;;;;1.00;1.00;;;;;23.91;52.00;100539.56;4979252;28;45241;-41
2023/07/29 10:33:55;;;;;;;;;1.00;1.00;;;;;23.90;52.17;100541.38;4979336;28;45341;-39
2023/07/29 10:36:20;;;;;;;;;1.00;1.00;;;;;23.90;52.67;100538.75;4978969;28;45358;-42
2023/07/29 10:38:46;;;;;;;;;1.00;1.00;;;;;23.92;52.51;100542.09;4978995;28;45231;-41
2023/07/29 10:41:11;;;;;;;;;1.25;1.25;;;;;23.91;52.33;100540.44;4979110;28;45480;-40
2023/07/29 10:43:39;;;;;;;;;2.75;1.75;;;;;23.92;51.96;100533.31;4979222;28;45385;-40
2023/07/29 10:46:20;;;;;;;;;1.00;1.00;;;;;23.93;52.17;100543.78;4979075;28;45415;-42
2023/07/29 10:48:51;;;;;;;;;1.00;1.00;;;;;23.94;52.64;100544.66;4978822;28;45290;-42
2023/07/29 10:51:40;;;;;;;;;2.00;2.00;;;;;23.94;52.05;100547.28;4979140;28;45219;-41
2023/07/29 10:54:11;;;;;;;;;2.00;2.00;;;;;23.93;52.23;100541.13;4979256;28;45342;-40
2023/07/29 10:56:40;;;;;;;;;2.00;2.00;;;;;23.94;52.66;100534.06;4961520;28;46332;-42
2023/07/29 10:59:12;;;;;;;;;2.75;2.75;;;;;23.97;52.31;100546.25;4961563;28;45940;-43
2023/07/29 11:01:39;;;;;;;;;2.00;2.00;;;;;23.94;52.39;100521.66;4978784;28;45204;-39
2023/07/29 11:04:20;;;;;;;;;2.00;2.00;;;;;23.96;52.33;100533.97;4979243;28;45184;-43
2023/07/29 11:07:03;;;;;;;;;2.00;2.00;;;;;23.97;52.77;100539.16;4978345;28;47454;-40
2023/07/29 11:09:50;;;;;;;;;2.00;2.00;;;;;23.96;52.35;100537.47;4977085;28;45405;-40
2023/07/29 11:12:37;;;;;;;;;3.00;2.00;;;;;23.96;52.38;100537.47;4978626;28;45492;-42
2023/07/29 11:15:23;;;;;;;;;3.75;2.00;;;;;23.96;52.33;100537.47;4978536;28;45169;-42
2023/07/29 11:18:08;;;;;;;;;2.00;2.00;;;;;23.94;52.39;100518.19;4978106;28;46961;-39
2023/07/29 11:20:34;;;;;;;;;3.25;3.00;;;;;23.95;52.40;100525.19;4978636;28;45348;-44
2023/07/29 11:23:02;;;;;;;;;3.00;3.00;;;;;23.97;53.00;100531.22;4978659;28;45296;-40
2023/07/29 11:25:30;;;;;;;;;3.50;3.00;;;;;23.96;52.51;100526.88;4978615;28;45491;-42
2023/07/29 11:27:57;;;;;;;;;3.00;1.75;;;;;23.97;53.16;100527.72;4978117;28;46999;-41
2023/07/29 11:30:26;;;;;;;;;2.00;2.00;;;;;23.96;53.28;100521.59;4978271;28;45310;-42
2023/07/29 11:32:53;;;;;;;;;2.25;2.25;;;;;23.97;53.17;100517.13;4978180;28;45435;-43
2023/07/29 11:35:19;;;;;;;;;2.00;2.00;;;;;23.98;52.66;100519.66;4978516;28;45324;-39
2023/07/29 11:37:49;;;;;;;;;2.00;2.00;;;;;23.98;52.74;100514.34;4960462;28;47225;-39
2023/07/29 11:40:15;;;;;;;;;2.00;2.00;;;;;23.98;53.36;100511.72;4978157;28;45219;-43
2023/07/29 11:42:41;;;;;;;;;1.50;1.00;;;;;23.98;53.31;100514.34;4960629;28;45380;-41
2023/07/29 11:45:08;;;;;;;;;4.00;2.50;;;;;23.99;52.97;100509.91;4978531;28;45474;-40
2023/07/29 11:47:36;;;;;;;;;3.00;3.00;;;;;24.00;53.52;100508.97;4977891;28;47387;-40
2023/07/29 11:50:07;;;;;;;;;2.00;2.00;;;;;24.00;52.71;100507.16;4977890;28;45567;-43
2023/07/29 11:52:43;;;;;;;;;3.50;2.50;;;;;24.00;52.92;100506.31;4977830;28;45385;-40
2023/07/29 11:55:09;;;;;;;;;3.75;2.00;;;;;24.01;52.97;100500.91;4978307;28;45448;-42
2023/07/29 11:57:38;;;;;;;;;5.50;2.25;;;;;24.00;52.74;100501.84;4977717;28;46100;-40
2023/07/29 12:00:09;;;;;;;;;2.00;2.00;;;;;24.01;52.81;100495.59;4977849;28;45398;-39
2023/07/29 12:02:37;;;;;;;;;2.25;2.25;;;;;24.00;53.38;100493.91;4977894;28;45363;-40
2023/07/29 12:05:04;;;;;;;;;2.25;2.00;;;;;24.01;53.29;100503.53;4976670;28;45253;-41
2023/07/29 12:07:30;;;;;;;;;3.00;2.00;;;;;24.02;52.97;100499.09;4977579;28;46196;-40
2023/07/29 12:09:56;;;;;;;;;2.00;2.00;;;;;24.02;53.18;100497.28;4977538;28;45156;-41
2023/07/29 12:12:22;;;;;;;;;2.00;2.00;;;;;24.02;53.16;100510.53;4976272;28;45438;-43
2023/07/29 12:14:49;;;;;;;;;1.50;1.50;;;;;24.03;53.41;100512.22;4977966;28;45470;-39
2023/07/29 12:17:14;;;;;;;;;2.00;2.00;;;;;24.04;54.07;100508.63;4977426;28;45478;-42
2023/07/29 12:19:41;;;;;;;;;1.00;1.00;;;;;24.05;53.96;100515.59;4976896;28;45429;-42
2023/07/29 12:22:08;;;;;;;;;3.00;2.00;;;;;24.05;54.60;100502.38;4977839;28;45284;-40
2023/07/29 12:24:37;;;;;;;;;1.00;1.00;;;;;24.05;54.74;100505.00;4977753;28;45329;-40
2023/07/29 12:27:03;;;;;;;;;2.00;2.00;;;;;24.05;54.79;100497.06;4977373;28;46257;-42
2023/07/29 12:29:28;;;;;;;;;1.75;1.75;;;;;24.06;55.35;100488.16;4959788;28;46197;-44
2023/07/29 12:32:02;;;;;;;;;2.00;2.00;;;;;24.07;55.81;100483.69;4977434;28;45424;-43
2023/07/29 12:34:29;;;;;;;;;2.00;1.25;;;;;24.09;55.54;100484.44;4977714;28;45443;-42
2023/07/29 12:36:56;;;;;;;;;2.25;2.00;;;;;24.09;55.70;100482.63;4977372;28;45472;-45
2023/07/29 12:39:23;;;;;;;;;4.25;2.75;;;;;24.12;55.34;100483.34;4977162;28;45716;-41
2023/07/29 12:41:50;;;;;;;;;1.00;1.00;;;;;24.12;55.50;100484.22;4977434;28;45419;-43
2023/07/29 12:44:16;;;;;;;;;2.75;2.00;;;;;24.13;55.16;100475.31;4977420;28;45228;-42
2023/07/29 12:46:41;;;;;;;;;2.00;2.00;;;;;24.16;55.76;100466.28;4959821;28;48607;-44
2023/07/29 12:49:07;;;;;;;;;1.00;1.00;;;;;24.18;55.22;100467.84;4977031;28;45452;-40
2023/07/29 12:51:32;;;;;;;;;2.75;2.75;;;;;24.21;55.42;100466.75;4977274;28;45342;-40
2023/07/29 12:53:58;;;;;;;;;4.50;2.00;;;;;24.23;55.19;100462.19;4977287;28;45524;-41
2023/07/29 12:56:23;;;;;;;;;2.00;2.00;;;;;24.24;55.46;100450.63;4976882;28;46555;-42
2023/07/29 12:58:48;;;;;;;;;1.75;1.75;;;;;24.28;55.11;100465.34;4975744;28;45754;-39
2023/07/29 13:01:17;;;;;;;;;2.00;2.00;;;;;24.30;54.87;100466.06;4977026;28;52824;-42
2023/07/29 13:03:43;;;;;;;;;3.00;2.00;;;;;24.30;54.74;100452.81;4977672;28;45512;-43
2023/07/29 13:06:09;;;;;;;;;1.50;1.00;;;;;24.34;54.41;100453.44;4959466;28;47099;-44
2023/07/29 13:08:34;;;;;;;;;1.00;1.00;;;;;24.35;54.51;100453.28;4976425;28;58713;-45
2023/07/29 13:10:59;;;;;;;;;3.50;2.25;;;;;24.37;54.32;100445.22;4977096;28;45364;-45
2023/07/29 13:13:24;;;;;;;;;1.50;1.50;;;;;24.41;55.01;100445.84;4977053;28;46025;-40
2023/07/29 13:15:50;;;;;;;;;4.00;2.00;;;;;24.42;54.92;100444.88;4976038;28;67711;-40
2023/07/29 13:18:15;;;;;;;;;1.00;1.00;;;;;24.44;54.34;100438.50;4976546;28;45294;-39
2023/07/29 13:20:40;;;;;;;;;2.50;2.50;;;;;24.44;54.07;100425.25;4976917;28;47208;-43
2023/07/29 13:23:06;;;;;;;;;1.00;1.00;;;;;24.47;53.85;100435.63;4976305;28;55871;-45
2023/07/29 13:25:31;;;;;;;;;2.00;1.00;;;;;24.49;53.77;100430.19;4975868;28;64500;-45
2023/07/29 13:27:56;;;;;;;;;1.33;1.33;;;;;24.50;53.93;100429.22;4975416;28;66330;-41
2023/07/29 13:30:21;;;;;;;;;1.25;1.25;;;;;24.50;53.78;100430.06;4973178;28;59398;-41
2023/07/29 13:32:47;;;;;;;;;2.00;2.00;;;;;24.52;53.94;100428.13;4980154;28;45487;-42
2023/07/29 13:35:12;;;;;;;;;0.00;0.00;;;;;24.55;53.56;100422.59;4962646;28;51291;-43
2023/07/29 13:37:37;;;;;;;;;2.00;2.00;;;;;24.57;53.94;100435.72;4979293;28;64381;-44
2023/07/29 13:40:03;;;;;;;;;1.50;0.25;;;;;24.58;53.58;100432.09;4980046;28;45415;-40
2023/07/29 13:42:28;;;;;;;;;2.00;2.00;;;;;24.58;53.65;100429.47;4980273;28;45543;-45
2023/07/29 13:44:54;;;;;;;;;1.50;1.50;;;;;24.59;53.07;100420.53;4962222;28;46408;-43
2023/07/29 13:47:19;;;;;;;;;2.50;2.50;;;;;24.60;53.32;100414.28;4979830;28;45370;-41
2023/07/29 13:49:44;;;;;;;;;2.00;2.00;;;;;24.60;53.26;100419.59;4979725;28;53647;-43
2023/07/29 13:52:09;;;;;;;;;3.00;2.00;;;;;24.64;53.15;100422.81;4980022;28;45550;-42
2023/07/29 13:54:35;;;;;;;;;2.00;2.00;;;;;24.64;52.96;100421.00;4979268;28;57888;-42
2023/07/29 13:57:00;;;;;;;;;1.00;1.00;;;;;24.66;52.52;100415.59;4979568;28;45422;-42
2023/07/29 13:59:25;;;;;;;;;1.75;1.75;;;;;24.66;52.58;100418.25;4979701;28;45422;-42
2023/07/29 14:01:51;;;;;;;;;1.00;1.00;;;;;24.66;52.63;100411.13;4980012;28;45514;-43
2023/07/29 14:04:16;;;;;;;;;3.00;2.00;;;;;24.66;52.67;100413.78;4979991;28;45307;-41
2023/07/29 14:06:41;;;;;;;;;2.00;1.00;;;;;24.67;52.45;100412.81;4979737;28;45349;-41
2023/07/29 14:09:07;;;;;;;;;1.00;1.00;;;;;24.68;52.55;100414.53;4979702;28;45243;-43
2023/07/29 14:11:32;;;;;;;;;2.00;1.00;;;;;24.70;52.04;100423.22;4979905;28;45473;-43
2023/07/29 14:13:58;;;;;;;;;1.50;1.50;;;;;24.71;52.26;100426.69;4979341;28;45387;-44
2023/07/29 14:16:23;;;;;;;;;1.00;1.00;;;;;24.72;52.07;100427.56;4979508;28;45322;-42
2023/07/29 14:18:48;;;;;;;;;2.00;2.00;;;;;24.73;52.14;100418.63;4979820;28;45304;-44
2023/07/29 14:21:14;;;;;;;;;1.50;1.50;;;;;24.74;52.17;100430.94;4979581;28;45424;-42
2023/07/29 14:23:39;;;;;;;;;1.00;1.00;;;;;24.77;52.28;100423.56;4979109;28;52108;-44
2023/07/29 14:26:04;;;;;;;;;1.00;1.00;;;;;24.78;52.51;100421.75;4961632;28;49280;-43
2023/07/29 14:28:30;;;;;;;;;1.25;1.25;;;;;24.80;52.56;100418.03;4978702;28;59770;-43
2023/07/29 14:30:55;;;;;;;;;3.00;1.75;;;;;24.81;52.56;100414.38;4979474;28;45203;-44
2023/07/29 14:33:21;;;;;;;;;1.25;1.25;;;;;24.84;52.46;100414.16;4978547;28;61501;-45
2023/07/29 14:35:46;;;;;;;;;1.00;1.00;;;;;24.85;52.28;100413.19;4961866;28;45335;-43
2023/07/29 14:38:11;;;;;;;;;1.00;1.00;;;;;24.84;52.03;100405.38;4979223;28;45290;-46
2023/07/29 14:40:37;;;;;;;;;2.00;2.00;;;;;24.84;52.19;100408.84;4979341;28;45451;-43
2023/07/29 14:43:02;;;;;;;;;2.50;1.00;;;;;24.87;52.00;100405.09;4978141;28;46392;-44
2023/07/29 14:45:27;;;;;;;;;1.00;1.00;;;;;24.86;51.91;100408.72;4978561;28;55031;-44
2023/07/29 14:47:53;;;;;;;;;1.00;1.00;;;;;24.86;52.27;100419.31;4979258;28;45404;-43
2023/07/29 14:50:18;;;;;;;;;1.00;1.00;;;;;24.87;52.25;100415.69;4978874;28;54245;-46
2023/07/29 14:52:43;;;;;;;;;2.00;2.00;;;;;24.87;52.31;100418.34;4978719;28;46022;-41
2023/07/29 14:55:08;;;;;;;;;3.50;1.00;;;;;24.88;51.91;100421.84;4978420;28;53640;-45
2023/07/29 14:57:34;;;;;;;;;1.00;1.00;;;;;24.88;52.10;100416.56;4961628;28;45522;-41
2023/07/29 14:59:59;;;;;;;;;1.00;1.00;;;;;24.88;52.35;100428.00;4961517;28;45463;-41
2023/07/29 15:02:25;;;;;;;;;1.50;1.50;;;;;24.87;52.18;100426.31;4978706;28;45920;-41
2023/07/29 15:04:50;;;;;;;;;1.00;1.00;;;;;24.89;52.15;100434.16;4978945;28;45331;-47
2023/07/29 15:07:16;;;;;;;;;2.00;1.00;;;;;24.88;52.05;100435.13;4978842;28;45344;-40
2023/07/29 15:09:41;;;;;;;;;2.00;1.25;;;;;24.86;52.15;100437.88;4978809;28;45229;-43
2023/07/29 15:12:07;;;;;;;;;1.75;1.00;;;;;24.86;51.65;100456.41;4978522;28;46118;-41
2023/07/29 15:14:32;;;;;;;;;1.00;1.00;;;;;24.84;52.26;100459.22;4978353;28;45224;-41
2023/07/29 15:16:58;;;;;;;;;1.00;1.00;;;;;24.81;53.40;100453.31;4978245;28;53550;-44
2023/07/29 15:19:23;;;;;;;;;1.00;1.00;;;;;24.79;53.90;100461.41;4978600;28;45194;-43
2023/07/29 15:21:48;;;;;;;;;2.25;1.50;;;;;24.76;54.94;100448.38;4978454;28;50635;-47
2023/07/29 15:24:14;;;;;;;;;1.50;1.50;;;;;24.73;55.04;100445.97;4978373;28;45251;-42
2023/07/29 15:26:41;;;;;;;;;1.00;1.00;;;;;24.72;55.33;100440.81;4978435;28;45402;-46
2023/07/29 15:29:07;;;;;;;;;2.00;2.00;;;;;24.67;55.75;100420.78;4978521;28;45479;-45
2023/07/29 15:31:33;;;;;;;;;3.50;1.00;;;;;24.66;56.15;100429.69;4978211;28;45967;-43
2023/07/29 15:33:58;;;;;;;;;1.00;1.00;;;;;24.64;55.82;100413.06;4960639;28;45316;-40
2023/07/29 15:36:24;;;;;;;;;1.25;1.25;;;;;24.65;56.32;100414.75;4978439;28;45309;-46
2023/07/29 15:38:49;;;;;;;;;1.00;1.00;;;;;24.64;56.80;100410.41;4978739;28;45322;-43
2023/07/29 15:41:15;;;;;;;;;3.75;1.00;;;;;24.64;56.61;100406.94;4978049;28;46236;-40
2023/07/29 15:43:40;;;;;;;;;2.00;2.00;;;;;24.63;56.69;100419.34;4978065;28;45404;-41
2023/07/29 15:46:05;;;;;;;;;1.50;1.50;;;;;24.63;57.03;100416.69;4978164;28;45385;-42
2023/07/29 15:48:31;;;;;;;;;2.00;2.00;;;;;24.64;57.04;100421.00;4960806;28;45609;-40
2023/07/29 15:50:56;;;;;;;;;3.00;2.00;;;;;24.64;56.62;100415.69;4977821;28;46734;-40
2023/07/29 15:53:22;;;;;;;;;3.00;1.75;;;;;24.64;57.12;100413.06;4978094;28;45223;-40
2023/07/29 15:55:47;;;;;;;;;2.00;2.00;;;;;24.63;56.96;100424.66;4978046;28;45260;-40
2023/07/29 15:58:13;;;;;;;;;4.75;2.25;;;;;24.62;56.83;100422.97;4977860;28;45636;-42
2023/07/29 16:00:38;;;;;;;;;1.50;1.50;;;;;24.64;56.76;100441.38;4977449;28;57910;-40
2023/07/29 16:03:03;;;;;;;;;2.00;2.00;;;;;24.63;57.18;100450.28;4977776;28;45291;-41
2023/07/29 16:05:29;;;;;;;;;2.75;2.75;;;;;24.63;56.77;100448.50;4959791;28;55723;-40
2023/07/29 16:07:57;;;;;;;;;3.50;3.50;;;;;24.64;57.48;100442.19;4978343;28;45236;-42
2023/07/29 16:10:22;;;;;;;;;3.00;2.00;;;;;24.62;57.21;100438.84;4977918;28;46680;-41
2023/07/29 16:12:48;;;;;;;;;2.25;1.75;;;;;24.64;57.07;100439.56;4977521;28;45439;-41
2023/07/29 16:15:13;;;;;;;;;2.25;1.50;;;;;24.64;57.42;100436.91;4977686;28;45356;-47
2023/07/29 16:17:38;;;;;;;;;2.25;2.00;;;;;24.64;57.34;100442.19;4977606;28;45387;-40
2023/07/29 16:20:04;;;;;;;;;2.00;1.00;;;;;24.64;57.12;100442.19;4977622;28;45318;-41
2023/07/29 16:22:30;;;;;;;;;6.00;3.00;;;;;24.64;57.68;100447.50;4977460;28;45472;-42
2023/07/29 16:24:55;;;;;;;;;2.00;2.00;;;;;24.64;57.20;100449.31;4977933;28;45356;-42
2023/07/29 16:27:20;;;;;;;;;2.25;2.25;;;;;24.64;56.89;100454.63;4977567;28;45496;-42
2023/07/29 16:29:46;;;;;;;;;3.75;1.25;;;;;24.65;57.53;100457.13;4977326;28;45402;-43
2023/07/29 16:32:12;;;;;;;;;2.00;1.00;;;;;24.65;57.28;100458.97;4977392;28;45350;-42
2023/07/29 16:34:38;;;;;;;;;2.25;1.50;;;;;24.66;57.40;100463.31;4977521;28;45362;-42
2023/07/29 16:37:05;;;;;;;;;2.25;2.25;;;;;24.63;57.49;100456.44;4977555;28;45578;-41
2023/07/29 16:39:31;;;;;;;;;3.00;2.25;;;;;24.66;57.06;100458.00;4977148;28;46505;-43
2023/07/29 16:41:56;;;;;;;;;4.00;2.00;;;;;24.65;57.38;100454.50;4960202;28;45433;-40
2023/07/29 16:44:22;;;;;;;;;3.00;2.00;;;;;24.62;56.76;100449.47;4977230;28;45350;-41
2023/07/29 16:46:47;;;;;;;;;2.00;2.00;;;;;24.63;57.51;100445.84;4977475;28;45255;-40
2023/07/29 16:49:12;;;;;;;;;2.00;2.00;;;;;24.63;57.64;100439.69;4976946;28;45338;-45
2023/07/29 16:51:38;;;;;;;;;3.00;2.25;;;;;24.61;57.25;100436.31;4977228;28;45457;-41
2023/07/29 16:54:03;;;;;;;;;6.00;3.00;;;;;24.60;57.01;100439.91;4977152;28;45295;-44
2023/07/29 16:56:28;;;;;;;;;2.25;2.00;;;;;24.60;56.91;100443.44;4976784;28;49443;-40
2023/07/29 16:58:53;;;;;;;;;2.00;2.00;;;;;24.55;57.06;100433.19;4959306;28;61572;-41
2023/07/29 17:01:19;;;;;;;;;3.00;3.00;;;;;24.59;57.25;100443.53;4976330;28;61639;-42
2023/07/29 17:03:44;;;;;;;;;3.00;3.00;;;;;24.59;57.48;100435.56;4977040;28;45386;-42
2023/07/29 17:06:10;;;;;;;;;4.00;4.00;;;;;24.61;57.05;100437.16;4976666;28;45397;-42
2023/07/29 17:08:35;;;;;;;;;4.25;4.25;;;;;24.60;57.66;100435.47;4959353;28;47337;-41
2023/07/29 17:11:01;;;;;;;;;3.00;2.25;;;;;24.60;57.31;100438.13;4976791;28;45301;-41
2023/07/29 17:13:26;;;;;;;;;4.00;2.00;;;;;24.62;57.55;100432.69;4959642;28;45498;-42
2023/07/29 17:15:51;;;;;;;;;4.50;3.00;;;;;24.61;57.15;100439.81;4976857;28;45347;-45
2023/07/29 17:18:16;;;;;;;;;5.75;4.50;;;;;24.59;57.58;100432.94;4955336;28;59610;-41
2023/07/29 17:20:42;;;;;;;;;3.25;2.25;;;;;24.64;57.02;100442.19;4956710;28;56991;-38
2023/07/29 17:23:07;;;;;;;;;4.25;4.00;;;;;24.65;57.43;100443.88;4956057;28;45466;-43
2023/07/29 17:25:32;;;;;;;;;5.75;4.00;;;;;24.67;56.97;100449.09;4957167;28;47015;-41
2023/07/29 17:27:58;;;;;;;;;6.00;4.00;;;;;24.65;57.43;100443.88;4953677;28;58933;-43
2023/07/29 17:30:27;;;;;;;;;3.00;3.00;;;;;24.67;57.32;100449.09;4947514;28;45735;-44
2023/07/29 17:32:53;;;;;;;;;5.50;4.00;;;;;24.68;57.17;100449.00;4948891;28;45416;-45
2023/07/29 17:35:19;;;;;;;;;6.25;4.50;;;;;24.68;57.15;100453.44;4957300;28;45329;-40
2023/07/29 17:37:45;;;;;;;;;5.25;3.50;;;;;24.68;57.25;100449.00;4956896;28;46903;-43
2023/07/29 17:40:11;;;;;;;;;4.50;4.50;;;;;24.69;57.41;100452.50;4956874;28;45282;-41
2023/07/29 17:42:36;;;;;;;;;3.75;3.75;;;;;24.71;57.75;100461.16;4956003;28;45397;-41
2023/07/29 17:45:02;;;;;;;;;5.75;4.00;;;;;24.69;57.71;100457.78;4957262;28;45424;-42
2023/07/29 17:47:27;;;;;;;;;4.00;3.50;;;;;24.72;57.42;100468.13;4957135;28;47102;-41
2023/07/29 17:49:53;;;;;;;;;4.25;3.00;;;;;24.73;57.40;100466.34;4956977;28;45298;-45
2023/07/29 17:52:18;;;;;;;;;4.50;3.25;;;;;24.73;57.92;100475.13;4956963;28;45338;-41
2023/07/29 17:54:43;;;;;;;;;4.00;3.00;;;;;24.72;57.14;100481.38;4957110;28;45640;-43
2023/07/29 17:57:09;;;;;;;;;4.25;3.25;;;;;24.73;57.86;100483.06;4956659;28;45360;-43
2023/07/29 17:59:34;;;;;;;;;3.00;3.00;;;;;24.74;57.39;100483.94;4955391;28;45478;-43
2023/07/29 18:02:00;;;;;;;;;3.00;3.00;;;;;24.74;57.67;100483.94;4957224;28;45222;-43
2023/07/29 18:04:25;;;;;;;;;3.00;3.00;;;;;24.72;57.32;100475.25;4955724;28;45465;-44
2023/07/29 18:06:51;;;;;;;;;3.00;3.00;;;;;24.70;57.68;100488.59;4956556;28;46151;-43
2023/07/29 18:09:16;;;;;;;;;5.00;4.00;;;;;24.69;57.25;100490.44;4956680;28;45453;-43
2023/07/29 18:11:41;;;;;;;;;4.00;4.00;;;;;24.69;57.16;100493.06;4956814;28;45384;-42
2023/07/29 18:14:07;;;;;;;;;4.00;4.00;;;;;24.68;57.73;100486.09;4956745;28;45428;-41
2023/07/29 18:16:33;;;;;;;;;3.50;2.25;;;;;24.68;56.96;100501.13;4956699;28;46161;-43
2023/07/29 18:18:58;;;;;;;;;4.00;4.00;;;;;24.67;57.63;100492.31;4974077;28;45431;-39
2023/07/29 18:21:23;;;;;;;;;4.00;4.00;;;;;24.64;57.32;100495.19;4979525;28;45383;-40
2023/07/29 18:23:49;;;;;;;;;4.00;2.25;;;;;24.64;57.20;100495.19;4979676;28;45348;-41
2023/07/29 18:26:14;;;;;;;;;1.75;1.75;;;;;24.63;57.23;100496.19;4979110;28;46136;-39
2023/07/29 18:28:40;;;;;;;;;3.75;2.25;;;;;24.65;57.24;100501.34;4979309;28;45438;-42
2023/07/29 18:31:05;;;;;;;;;2.00;2.00;;;;;24.64;56.55;100508.44;4979352;28;45295;-39
2023/07/29 18:33:30;;;;;;;;;3.75;3.00;;;;;24.63;56.99;100509.44;4979773;28;45401;-41
2023/07/29 18:35:56;;;;;;;;;4.00;3.00;;;;;24.61;56.38;100500.75;4979177;28;45598;-41
2023/07/29 18:38:22;;;;;;;;;3.50;3.00;;;;;24.61;56.38;100515.78;4979147;28;45377;-45
2023/07/29 18:40:47;;;;;;;;;3.00;2.25;;;;;24.62;56.59;100514.84;4961604;28;45266;-46
2023/07/29 18:43:13;;;;;;;;;4.00;2.25;;;;;24.59;56.44;100523.88;4979340;28;45282;-41
2023/07/29 18:45:38;;;;;;;;;3.50;3.00;;;;;24.60;56.27;100516.75;4978903;28;46909;-43
2023/07/29 18:48:05;;;;;;;;;3.50;2.75;;;;;24.61;56.00;100526.41;4978961;28;51964;-41
2023/07/29 18:50:33;;;;;;;;;2.25;2.25;;;;;24.59;56.22;100525.66;4979419;28;45293;-42
2023/07/29 18:52:58;;;;;;;;;4.75;3.25;;;;;24.59;56.02;100533.63;4961499;28;45335;-44
2023/07/29 18:55:25;;;;;;;;;3.75;3.75;;;;;24.58;56.09;100527.50;4978702;28;45970;-40
2023/07/29 18:57:51;;;;;;;;;3.00;3.00;;;;;24.57;56.04;100538.22;4978826;28;45451;-42
2023/07/29 19:00:16;;;;;;;;;7.00;4.25;;;;;24.57;56.20;100544.34;4978974;28;45347;-40
2023/07/29 19:02:44;;;;;;;;;5.00;4.00;;;;;24.55;56.14;100547.13;4979225;28;45334;-41
2023/07/29 19:05:11;;;;;;;;;5.00;5.00;;;;;24.58;56.02;100542.56;4961031;28;47193;-42
2023/07/29 19:07:37;;;;;;;;;6.00;5.75;;;;;24.57;55.77;100546.16;4978777;28;45248;-40
2023/07/29 19:10:02;;;;;;;;;5.25;5.00;;;;;24.54;55.57;100547.22;4978951;28;45423;-40
2023/07/29 19:12:28;;;;;;;;;6.00;5.00;;;;;24.55;55.42;100539.19;4978751;28;45572;-41
2023/07/29 19:14:53;;;;;;;;;4.00;4.00;;;;;24.52;55.51;100535.94;4978506;28;46149;-41
2023/07/29 19:17:19;;;;;;;;;4.75;4.75;;;;;24.53;54.98;100545.53;4977756;28;58114;-48
2023/07/29 19:19:44;;;;;;;;;3.25;3.25;;;;;24.53;55.50;100546.38;4978701;28;45413;-41
2023/07/29 19:22:09;;;;;;;;;6.00;5.00;;;;;24.52;55.80;100549.16;4978588;28;45544;-41
2023/07/29 19:24:35;;;;;;;;;5.00;5.00;;;;;24.51;55.57;100547.47;4978525;28;47011;-46
2023/07/29 19:27:07;;;;;;;;;7.25;6.00;;;;;24.55;55.35;100554.22;4978346;28;45452;-42
2023/07/29 19:29:32;;;;;;;;;4.50;4.50;;;;;24.55;55.05;100560.38;4978453;28;45437;-40
2023/07/29 19:31:57;;;;;;;;;5.00;4.00;;;;;24.55;55.29;100554.22;4978604;28;45604;-44
2023/07/29 19:34:23;;;;;;;;;7.25;5.00;;;;;24.51;54.92;100547.47;4978048;28;49015;-40
2023/07/29 19:36:51;;;;;;;;;6.50;5.50;;;;;24.52;55.34;100554.47;4978219;28;45309;-41
2023/07/29 19:39:17;;;;;;;;;4.25;4.25;;;;;24.51;55.62;100552.78;4978313;28;45436;-40
2023/07/29 19:41:42;;;;;;;;;6.75;5.75;;;;;24.50;55.61;100561.69;4961047;28;45510;-44
2023/07/29 19:44:08;;;;;;;;;8.75;7.00;;;;;24.50;55.79;100565.16;4978152;28;45235;-42
2023/07/29 19:46:33;;;;;;;;;5.75;5.00;;;;;24.52;55.68;100565.06;4978334;28;45239;-43
2023/07/29 19:48:59;;;;;;;;;5.25;5.25;;;;;24.51;55.72;100564.22;4978147;28;45355;-40
2023/07/29 19:51:25;;;;;;;;;5.50;5.25;;;;;24.49;55.59;100562.66;4978168;28;45278;-42
2023/07/29 19:53:50;;;;;;;;;8.00;6.00;;;;;24.50;55.00;100572.28;4977714;28;45258;-40
2023/07/29 19:56:16;;;;;;;;;7.75;4.50;;;;;24.53;55.62;100572.03;4977986;28;45339;-41